createdAt,value
2023-05-07T00:01:12.139Z,8.93
2023-05-07T00:06:13.982Z,8.89
2023-05-07T00:11:15.907Z,8.95
2023-05-07T00:16:17.828Z,8.91
2023-05-07T00:21:19.673Z,8.97
2023-05-07T00:26:22.032Z,8.97
2023-05-07T00:31:25.909Z,8.96
2023-05-07T00:36:28.069Z,8.87
2023-05-07T00:41:31.631Z,8.87
2023-05-07T00:46:34.025Z,8.85
2023-05-07T00:51:36.111Z,8.84
2023-05-07T00:56:39.008Z,8.86
2023-05-07T01:01:41.126Z,8.90
2023-05-07T01:06:45.549Z,8.96
2023-05-07T01:11:49.084Z,8.89
2023-05-07T01:16:52.229Z,8.89
2023-05-07T01:22:03.203Z,8.77
2023-05-07T01:27:06.377Z,8.69
2023-05-07T01:32:11.097Z,8.69
2023-05-07T01:37:14.068Z,8.63
2023-05-07T01:42:16.175Z,8.66
2023-05-07T01:47:18.218Z,8.69
2023-05-07T01:52:20.163Z,8.64
2023-05-07T01:57:22.120Z,8.64
2023-05-07T02:02:24.147Z,8.62
2023-05-07T02:07:27.138Z,8.61
2023-05-07T02:12:29.906Z,8.57
2023-05-07T02:17:33.035Z,8.58
2023-05-07T02:22:35.386Z,8.54
2023-05-07T02:27:37.220Z,8.32
2023-05-07T02:32:39.772Z,8.23
2023-05-07T02:37:41.632Z,8.28
2023-05-07T02:42:43.664Z,8.24
2023-05-07T02:47:45.708Z,8.20
2023-05-07T02:52:48.387Z,8.20
2023-05-07T02:57:50.318Z,8.29
2023-05-07T03:02:52.284Z,8.29
2023-05-07T03:07:54.527Z,8.33
2023-05-07T03:12:56.625Z,8.30
2023-05-07T03:17:58.690Z,8.30
2023-05-07T03:23:02.027Z,8.20
2023-05-07T03:28:03.971Z,8.11
2023-05-07T03:33:17.817Z,8.16
2023-05-07T03:38:20.076Z,8.09
2023-05-07T03:43:22.338Z,8.20
2023-05-07T03:48:31.371Z,8.19
2023-05-07T03:53:34.636Z,8.11
2023-05-07T03:58:36.766Z,8.09
2023-05-07T04:03:43.463Z,8.21
2023-05-07T04:08:45.504Z,8.27
2023-05-07T04:13:48.760Z,8.19
2023-05-07T04:18:54.585Z,8.17
2023-05-07T04:23:57.254Z,8.14
2023-05-07T04:29:00.286Z,8.18
2023-05-07T04:34:07.229Z,8.21
2023-05-07T04:39:09.322Z,8.28
2023-05-07T04:44:11.952Z,8.30
2023-05-07T04:49:13.845Z,8.48
2023-05-07T04:54:16.316Z,8.55
2023-05-07T04:59:18.298Z,8.58
2023-05-07T05:04:20.358Z,8.56
2023-05-07T05:09:23.053Z,8.46
2023-05-07T05:14:25.368Z,8.29
2023-05-07T05:19:28.317Z,8.28
2023-05-07T05:24:30.311Z,8.42
2023-05-07T05:29:32.877Z,8.49
2023-05-07T05:34:34.925Z,8.53
2023-05-07T05:39:38.032Z,8.65
2023-05-07T05:44:41.569Z,8.78
2023-05-07T05:49:44.488Z,8.65
2023-05-07T05:54:50.650Z,8.52
2023-05-07T05:59:53.225Z,8.55
2023-05-07T06:04:55.180Z,8.88
2023-05-07T06:09:58.833Z,8.96
2023-05-07T06:15:00.870Z,8.93
2023-05-07T06:20:02.837Z,8.74
2023-05-07T06:25:06.454Z,8.59
2023-05-07T06:30:09.766Z,8.89
2023-05-07T06:35:11.947Z,8.87
2023-05-07T06:40:15.613Z,8.80
2023-05-07T06:45:19.042Z,8.69
2023-05-07T06:50:20.944Z,9.02
2023-05-07T06:55:23.813Z,9.07
2023-05-07T07:00:26.311Z,9.24
2023-05-07T07:05:31.051Z,9.45
2023-05-07T07:10:34.218Z,9.58
2023-05-07T07:15:37.604Z,9.88
2023-05-07T07:20:39.573Z,9.87
2023-05-07T07:25:43.472Z,9.82
2023-05-07T07:30:46.384Z,10.07
2023-05-07T07:35:48.438Z,10.10
2023-05-07T07:40:50.577Z,10.17
2023-05-07T07:45:53.055Z,10.40
2023-05-07T07:50:56.051Z,10.32
2023-05-07T07:55:59.681Z,10.24
2023-05-07T08:01:05.509Z,9.76
2023-05-07T08:06:07.459Z,9.90
2023-05-07T08:11:11.110Z,10.26
2023-05-07T08:16:13.508Z,9.99
2023-05-07T08:21:15.926Z,10.12
2023-05-07T08:26:18.084Z,9.74
2023-05-07T08:31:20.217Z,9.98
2023-05-07T08:36:22.523Z,10.03
2023-05-07T08:41:24.580Z,10.44
2023-05-07T08:46:29.992Z,10.13
2023-05-07T08:51:32.438Z,10.26
2023-05-07T08:56:34.791Z,11.04
2023-05-07T09:01:37.097Z,11.34
2023-05-07T09:06:42.745Z,11.39
2023-05-07T09:11:46.426Z,11.34
2023-05-07T09:16:50.726Z,11.62
2023-05-07T09:22:03.803Z,12.18
2023-05-07T09:27:14.522Z,12.21
2023-05-07T09:32:19.805Z,12.03
2023-05-07T09:37:22.396Z,12.83
2023-05-07T09:42:26.575Z,14.00
2023-05-07T09:47:33.593Z,14.09
2023-05-07T09:52:37.164Z,13.27
2023-05-07T09:57:43.092Z,12.91
2023-05-07T10:02:49.414Z,12.54
2023-05-07T10:07:54.087Z,13.36
2023-05-07T10:12:58.251Z,13.42
2023-05-07T10:18:07.684Z,13.75
2023-05-07T10:23:15.527Z,14.13
2023-05-07T10:28:25.095Z,14.50
2023-05-07T10:33:31.300Z,13.92
2023-05-07T10:38:35.097Z,13.45
2023-05-07T10:43:43.070Z,13.74
2023-05-07T10:49:01.813Z,14.68
2023-05-07T10:54:13.770Z,14.73
2023-05-07T10:59:28.324Z,15.46
2023-05-07T11:04:36.168Z,14.37
2023-05-07T11:10:05.269Z,17.31
2023-05-07T11:15:40.407Z,17.33
2023-05-07T11:20:52.373Z,17.73
2023-05-07T11:26:15.374Z,19.64
2023-05-07T11:31:23.464Z,18.43
2023-05-07T11:36:27.176Z,18.15
2023-05-07T11:41:38.251Z,18.55
2023-05-07T11:46:44.971Z,18.61
2023-05-07T11:51:47.785Z,17.98
2023-05-07T11:56:50.419Z,18.30
2023-05-07T12:01:52.288Z,18.85
2023-05-07T12:06:57.246Z,19.58
2023-05-07T12:12:05.157Z,19.25
2023-05-07T12:17:11.247Z,19.33
2023-05-07T12:22:13.892Z,18.82
2023-05-07T12:27:16.859Z,20.14
2023-05-07T12:32:20.264Z,19.70
2023-05-07T12:37:27.557Z,20.65
2023-05-07T12:42:37.311Z,19.97
2023-05-07T12:47:39.289Z,18.72
2023-05-07T12:52:41.593Z,20.29
2023-05-07T12:57:48.657Z,21.01
2023-05-07T13:02:50.707Z,19.77
2023-05-07T13:07:59.088Z,21.70
2023-05-07T13:13:01.082Z,19.30
2023-05-07T13:18:03.759Z,21.65
2023-05-07T13:23:05.734Z,21.96
2023-05-07T13:28:11.207Z,19.71
2023-05-07T13:33:13.727Z,19.46
2023-05-07T13:38:17.034Z,17.05
2023-05-07T13:43:19.898Z,16.02
2023-05-07T13:48:21.783Z,17.34
2023-05-07T13:53:23.606Z,16.12
2023-05-07T13:58:25.464Z,15.83
2023-05-07T14:03:27.390Z,15.94
2023-05-07T14:08:31.818Z,17.20
2023-05-07T14:13:35.428Z,22.58
2023-05-07T14:18:38.248Z,21.23
2023-05-07T14:23:40.156Z,18.59
2023-05-07T14:28:47.206Z,20.65
2023-05-07T14:33:50.848Z,18.67
2023-05-07T14:38:55.110Z,16.87
2023-05-07T14:43:57.034Z,16.26
2023-05-07T14:48:58.900Z,17.34
2023-05-07T14:54:01.497Z,17.18
2023-05-07T14:59:04.633Z,17.33
2023-05-07T15:04:07.035Z,23.04
2023-05-07T15:09:10.006Z,21.63
2023-05-07T15:14:11.866Z,20.40
2023-05-07T15:19:15.928Z,20.24
2023-05-07T15:24:17.823Z,20.58
2023-05-07T15:29:19.776Z,19.44
2023-05-07T15:34:22.793Z,20.46
2023-05-07T15:39:25.880Z,18.52
2023-05-07T15:44:29.631Z,16.49
2023-05-07T15:49:31.565Z,15.73
2023-05-07T15:54:33.506Z,15.30
2023-05-07T15:59:36.204Z,15.05
2023-05-07T16:04:38.135Z,14.56
2023-05-07T16:09:40.034Z,14.21
2023-05-07T16:14:41.951Z,14.22
2023-05-07T16:19:43.908Z,14.21
2023-05-07T16:24:46.169Z,13.66
2023-05-07T16:29:48.314Z,13.55
2023-05-07T16:34:50.172Z,13.44
2023-05-07T16:39:52.085Z,13.49
2023-05-07T16:44:54.826Z,13.17
2023-05-07T16:49:56.672Z,13.09
2023-05-07T16:55:01.454Z,12.79
2023-05-07T17:00:07.500Z,12.61
2023-05-07T17:05:09.951Z,12.44
2023-05-07T17:10:12.005Z,12.29
2023-05-07T17:15:14.189Z,12.17
2023-05-07T17:20:16.371Z,12.11
2023-05-07T17:25:18.331Z,12.04
2023-05-07T17:30:20.323Z,11.98
2023-05-07T17:35:22.161Z,11.85
2023-05-07T17:40:24.024Z,11.82
2023-05-07T17:45:26.020Z,11.75
2023-05-07T17:50:28.442Z,11.52
2023-05-07T17:55:30.630Z,11.35
2023-05-07T18:00:32.604Z,11.13
2023-05-07T18:05:37.927Z,10.97
2023-05-07T18:10:40.093Z,10.76
2023-05-07T18:15:42.188Z,10.59
2023-05-07T18:20:49.402Z,10.43
2023-05-07T18:25:51.306Z,10.32
2023-05-07T18:30:53.101Z,10.14
2023-05-07T18:35:55.006Z,10.00
2023-05-07T18:41:04.506Z,9.91
2023-05-07T18:46:06.718Z,9.82
2023-05-07T18:51:12.632Z,9.68
2023-05-07T18:56:14.622Z,9.54
2023-05-07T19:01:16.636Z,9.43
2023-05-07T19:06:18.567Z,9.31
2023-05-07T19:11:20.916Z,9.24
2023-05-07T19:16:23.081Z,9.10
2023-05-07T19:21:25.602Z,8.99
2023-05-07T19:26:27.525Z,8.85
2023-05-07T19:31:30.581Z,8.74
2023-05-07T19:36:34.571Z,8.70
2023-05-07T19:41:36.528Z,8.61
2023-05-07T19:46:40.551Z,8.48
2023-05-07T19:51:42.514Z,8.33
2023-05-07T19:56:44.341Z,8.31
2023-05-07T20:01:46.229Z,8.20
2023-05-07T20:06:48.081Z,8.12
2023-05-07T20:11:50.090Z,8.09
2023-05-07T20:16:52.000Z,8.03
2023-05-07T20:21:53.941Z,7.93
2023-05-07T20:26:55.819Z,7.91
2023-05-07T20:31:57.799Z,7.85
2023-05-07T20:37:00.362Z,7.75
2023-05-07T20:42:02.257Z,7.75
2023-05-07T20:47:04.378Z,7.62
2023-05-07T20:52:06.195Z,7.58
2023-05-07T20:57:08.015Z,7.51
2023-05-07T21:02:09.856Z,7.46
2023-05-07T21:07:12.763Z,7.37
2023-05-07T21:12:14.575Z,7.39
2023-05-07T21:17:16.469Z,7.31
2023-05-07T21:22:18.316Z,7.22
2023-05-07T21:27:20.439Z,7.16
2023-05-07T21:32:22.276Z,7.13
2023-05-07T21:37:24.113Z,7.02
2023-05-07T21:42:27.049Z,6.95
2023-05-07T21:47:28.872Z,6.92
2023-05-07T21:52:30.811Z,6.88
2023-05-07T21:57:33.199Z,6.82
2023-05-07T22:02:35.221Z,6.86
2023-05-07T22:07:37.363Z,6.87
2023-05-07T22:12:39.881Z,7.27
2023-05-07T22:17:41.796Z,7.29
2023-05-07T22:22:52.713Z,7.31
2023-05-07T22:27:54.897Z,7.28
2023-05-07T22:32:56.797Z,7.22
2023-05-07T22:37:58.638Z,7.22
2023-05-07T22:43:00.539Z,7.22
2023-05-07T22:48:02.498Z,7.17
2023-05-07T22:53:05.145Z,7.12
2023-05-07T22:58:08.012Z,7.05
2023-05-07T23:03:09.927Z,6.95
2023-05-07T23:08:12.273Z,6.90
2023-05-07T23:13:17.550Z,6.81
2023-05-07T23:18:19.753Z,6.74
2023-05-07T23:23:21.764Z,6.69
2023-05-07T23:28:23.604Z,6.59
2023-05-07T23:33:25.577Z,6.39
2023-05-07T23:38:27.508Z,6.37
2023-05-07T23:43:29.310Z,6.51
2023-05-07T23:48:31.158Z,6.39
2023-05-07T23:53:33.036Z,6.41
2023-05-07T23:58:34.866Z,6.41
